Bryn Mawr, CA (92318)

9:05 PM PDT on July 30, 2015 (GMT -0700)
Loma Linda | | Change Station
CLOSE
Current Station
Personal Weather Station
Location: Loma Linda, CA
Elevation: 1240 ft
Nearby Weather Stations
Active Advisory: Areal Flood Advisory

Elev 1240 ft 34.04 °N, 117.22 °W | Updated 4 seconds ago

Mostly Cloudy
Mostly Cloudy
75.6 °F
Feels Like 76 °F
N
0.0
Wind Variable Wind from SSE
Gusts 0.0 mph

Today
High -- | Low -- °F
--% Chance of Precip.
Yesterday
High -- | Low -- °F
Precip. -- in
5:58 AM 7:51 PM
Full, 100% visible
Pressure 30.00 in
Visibility 7.0 miles
Clouds Mostly Cloudy 11000 ft
Heat Index 76 °F
Dew Point 71 °F
Humidity 86%
Rainfall 0.17 in
Snow Depth Not available.
UV 0 out of 12
Pollen 2.60 out of 12
Air Quality Not available.
Flu Activity Not available.
METAR KSBD 310250Z 00000KT 7SM BKN110 25/18 A3000

More Conditions Fewer Conditions

Pressure 30.00 in
Visibility 7.0 miles
Clouds Mostly Cloudy 11000 ft
Heat Index 76 °F
Dew Point 71 °F
Humidity 86%
Rainfall 0.17 in
Snow Depth Not available.
UV 0 out of 12
Pollen 2.60 out of 12
Air Quality Not available.
Flu Activity Not available.
METAR KSBD 310250Z 00000KT 7SM BKN110 25/18 A3000

More Conditions Fewer Conditions

10-Day Weather Forecast

×

Almanac

Astronomy

Jul. 30, 2015 Rise Set
Actual Time
Civil Twilight
Nautical Twilight
Astronomical Twilight
Moon
Length of Visible Light
Length of Day
Tomorrow will be .
, % of the Moon is Illuminated

Today's Extremes

State Highs State Lows

Community

WunderPhotos

Upload Photos

1,842,602 photos uploaded!

WunderBlogs® & News

Nearby

Air Quality

  Air Quality AQ Index Pollutant
Not available.

Snow Depth

Station Depth Elevation

Earthquake Activity

City Distance Mag. Time & Date
Minimum magnitude displayed is 2.5.

Coastal Water Temperatures

Place Temperature

Stations

Nearby Weather Stations

Station Location Temp. Windchill Dew Point Humidity Wind Precip. Elev Updated Type
                   
Areal Flood Advisory
Statement as of 7:03 PM PDT on July 30, 2015

The National Weather Service in Phoenix has issued a

* Flood Advisory for...
north central Riverside County in Southern California...
northeastern San Bernardino County in Southern California...

* until 1000 PM PDT

* at 700 PM PDT... Doppler radar indicated heavy rain due to
thunderstorms. Thunderstorms have redeveloped in Joshua Tree
National Park. Additional heavy rain is expected this evening.
This will cause minor flooding in the advisory area.

* Some locations that will experience flooding include...
Eagle mtn and Cottonwood visitor.

Lat... Lon 3408 11540 3382 11547 3372 11566 3372 11595
      3403 11595 3404 11560 3408 11561 3408 11555
      3412 11552


Hirsch